Archival Weather

Chicago O'Hare International

Chicago, Illinois (KORD)

Report from: Tuesday, December 6, 2022 9:51 PM CST
Current time: Saturday, February 4, 2023 10:50 PM CST

Current weather
Weather history
Weather forecast

Present weatherMist
Temperature2.8°C (37.0°F)
Wind chill1.4°C (34.5°F)
Dew point0.6°C (33.1°F)
Winds 3 kts (1.5 m/s, 3.5 mph) North-Northwest (330°)
Visibility5 mi. (8 km)
Clouds Few clouds 1,000 ft. (305 m)
Scattered clouds 2,300 ft. (701 m)
Altimeter30.06 in.Hg (1018 mB)
Relative humidity85 %
Density altitude-1,546 ft. (-471 m)
Sea-level pressure101.9 kPa (1019 mB, 30.08 in.Hg)
Remarks Automated weather observing station with precipitation discriminator
Flight conditions Visual Meteorological Conditions
Raw dataKORD 070351Z 33003KT 5SM BR FEW010 SCT023 03/01 A3006 RMK AO2 SLP185 T00280006
An unhandled exception has occurred. See browser dev tools for details. Reload 🗙